createdAt,value
2017-07-30T00:00:23.895Z,93.00
2017-07-30T00:02:51.444Z,92.80
2017-07-30T00:05:19.015Z,92.70
2017-07-30T00:07:46.647Z,92.90
2017-07-30T00:10:14.152Z,93.00
2017-07-30T00:12:41.726Z,93.40
2017-07-30T00:15:10.118Z,93.00
2017-07-30T00:17:38.551Z,92.80
2017-07-30T00:20:06.105Z,92.80
2017-07-30T00:22:33.672Z,93.30
2017-07-30T00:25:01.238Z,93.20
2017-07-30T00:27:28.809Z,93.30
2017-07-30T00:29:56.367Z,93.30
2017-07-30T00:32:23.935Z,93.20
2017-07-30T00:34:51.482Z,93.10
2017-07-30T00:37:19.037Z,93.50
2017-07-30T00:39:46.597Z,93.70
2017-07-30T00:42:14.257Z,93.80
2017-07-30T00:44:41.833Z,93.90
2017-07-30T00:47:09.482Z,94.00
2017-07-30T00:49:37.046Z,94.40
2017-07-30T00:52:04.613Z,94.70
2017-07-30T00:54:32.190Z,94.40
2017-07-30T00:57:00.587Z,94.70
2017-07-30T00:59:28.166Z,95.10
2017-07-30T01:01:55.713Z,94.90
2017-07-30T01:04:23.277Z,95.20
2017-07-30T01:06:50.881Z,95.30
2017-07-30T01:09:19.194Z,95.40
2017-07-30T01:11:46.752Z,95.40
2017-07-30T01:14:14.314Z,95.40
2017-07-30T01:16:41.894Z,95.40
2017-07-30T01:19:09.454Z,95.80
2017-07-30T01:21:37.001Z,96.00
2017-07-30T01:24:04.550Z,95.90
2017-07-30T01:26:32.116Z,96.00
2017-07-30T01:28:59.670Z,96.10
2017-07-30T01:31:27.255Z,96.40
2017-07-30T01:33:54.904Z,96.70
2017-07-30T01:36:22.480Z,96.90
2017-07-30T01:38:50.046Z,96.90
2017-07-30T01:41:17.627Z,96.70
2017-07-30T01:43:45.205Z,97.00
2017-07-30T01:46:12.778Z,96.60
2017-07-30T01:48:40.328Z,96.70
2017-07-30T01:51:07.869Z,96.90
2017-07-30T01:53:35.428Z,97.00
2017-07-30T01:56:02.982Z,96.80
2017-07-30T01:58:30.541Z,96.30
2017-07-30T02:00:58.244Z,96.10
2017-07-30T02:03:25.808Z,95.70
2017-07-30T02:05:53.349Z,96.00
2017-07-30T02:08:21.068Z,95.80
2017-07-30T02:10:48.617Z,95.30
2017-07-30T02:13:16.954Z,95.40
2017-07-30T02:15:44.480Z,95.40
2017-07-30T02:18:12.032Z,95.40
2017-07-30T02:20:39.586Z,95.10
2017-07-30T02:23:07.172Z,94.90
2017-07-30T02:25:34.922Z,94.80
2017-07-30T02:28:02.486Z,94.70
2017-07-30T02:30:30.059Z,94.60
2017-07-30T02:32:57.639Z,94.70
2017-07-30T02:35:25.202Z,94.50
2017-07-30T02:37:52.783Z,94.50
2017-07-30T02:40:20.334Z,94.70
2017-07-30T02:42:47.919Z,94.90
2017-07-30T02:45:15.470Z,94.60
2017-07-30T02:47:43.022Z,94.90
2017-07-30T02:50:10.866Z,95.10
2017-07-30T02:52:38.414Z,95.10
2017-07-30T02:55:05.979Z,95.20
2017-07-30T02:57:33.558Z,95.40
2017-07-30T03:00:01.107Z,95.80
2017-07-30T03:02:28.666Z,96.30
2017-07-30T03:04:56.339Z,96.20
2017-07-30T03:07:23.894Z,96.60
2017-07-30T03:09:51.444Z,96.20
2017-07-30T03:12:19.016Z,96.30
2017-07-30T03:14:46.591Z,96.30
2017-07-30T03:17:14.147Z,96.30
2017-07-30T03:19:41.714Z,96.30
2017-07-30T03:22:09.282Z,96.30
2017-07-30T03:24:36.849Z,96.40
2017-07-30T03:27:04.419Z,96.60
2017-07-30T03:29:31.997Z,96.50
2017-07-30T03:31:59.557Z,96.50
2017-07-30T03:34:27.137Z,96.70
2017-07-30T03:36:54.703Z,97.30
2017-07-30T03:39:22.253Z,97.40
2017-07-30T03:41:49.827Z,97.30
2017-07-30T03:44:17.366Z,97.10
2017-07-30T03:46:44.954Z,97.10
2017-07-30T03:49:13.284Z,97.00
2017-07-30T03:51:40.846Z,97.10
2017-07-30T03:54:08.409Z,97.30
2017-07-30T03:56:35.964Z,97.50
2017-07-30T03:59:03.516Z,97.50
2017-07-30T04:01:31.086Z,97.50
2017-07-30T04:03:58.643Z,97.50
2017-07-30T04:06:26.190Z,97.50
2017-07-30T04:08:53.729Z,98.10
2017-07-30T04:11:22.086Z,98.30
2017-07-30T04:13:49.642Z,98.20
2017-07-30T04:16:17.329Z,98.30
2017-07-30T04:18:44.931Z,98.30
2017-07-30T04:21:12.638Z,99.00
2017-07-30T04:23:40.210Z,98.80
2017-07-30T04:26:07.865Z,98.70
2017-07-30T04:28:35.418Z,98.70
2017-07-30T04:31:02.967Z,98.60
2017-07-30T04:33:30.554Z,98.60
2017-07-30T04:35:58.150Z,98.10
2017-07-30T04:38:26.466Z,98.10
2017-07-30T04:40:54.041Z,98.10
2017-07-30T04:43:21.592Z,98.40
2017-07-30T04:45:49.157Z,98.30
2017-07-30T04:48:16.718Z,98.40
2017-07-30T04:50:44.292Z,98.50
2017-07-30T04:53:11.914Z,98.30
2017-07-30T04:55:39.465Z,98.60
2017-07-30T04:58:07.789Z,98.50
2017-07-30T05:00:35.345Z,98.50
2017-07-30T05:03:03.015Z,98.40
2017-07-30T05:05:30.570Z,98.30
2017-07-30T05:07:58.167Z,98.30
2017-07-30T05:10:25.742Z,98.20
2017-07-30T05:12:53.301Z,97.90
2017-07-30T05:15:20.852Z,98.00
2017-07-30T05:17:48.428Z,97.50
2017-07-30T05:20:15.990Z,97.40
2017-07-30T05:22:43.609Z,97.00
2017-07-30T05:25:11.273Z,97.00
2017-07-30T05:27:38.851Z,97.00
2017-07-30T05:30:06.406Z,96.30
2017-07-30T05:32:33.985Z,95.10
2017-07-30T05:35:01.558Z,93.50
2017-07-30T05:37:29.190Z,93.30
2017-07-30T05:39:56.745Z,92.40
2017-07-30T05:42:24.322Z,91.30
2017-07-30T05:44:51.910Z,91.20
2017-07-30T05:47:19.470Z,89.10
2017-07-30T05:49:47.014Z,88.10
2017-07-30T05:52:14.622Z,87.20
2017-07-30T05:54:42.960Z,83.20
2017-07-30T05:57:10.529Z,83.30
2017-07-30T05:59:38.123Z,82.40
2017-07-30T06:02:06.458Z,78.90
2017-07-30T06:04:34.049Z,78.80
2017-07-30T06:07:01.594Z,76.50
2017-07-30T06:09:29.169Z,76.10
2017-07-30T06:11:56.746Z,73.70
2017-07-30T06:14:25.074Z,71.40
2017-07-30T06:16:52.676Z,71.40
2017-07-30T06:19:20.315Z,66.60
2017-07-30T06:21:47.862Z,69.40
2017-07-30T06:24:15.410Z,69.20
2017-07-30T06:26:42.980Z,69.10
2017-07-30T06:29:10.557Z,66.30
2017-07-30T06:31:38.131Z,66.10
2017-07-30T06:34:05.692Z,63.00
2017-07-30T06:36:33.286Z,64.50
2017-07-30T06:39:00.832Z,67.50
2017-07-30T06:41:28.497Z,66.80
2017-07-30T06:43:56.086Z,65.60
2017-07-30T06:46:24.408Z,62.80
2017-07-30T06:48:52.139Z,62.70
2017-07-30T06:51:20.462Z,61.00
2017-07-30T06:53:48.023Z,60.80
2017-07-30T06:56:15.588Z,60.50
2017-07-30T06:58:43.169Z,59.70
2017-07-30T07:01:10.718Z,57.30
2017-07-30T07:03:38.285Z,58.10
2017-07-30T07:06:05.862Z,54.60
2017-07-30T07:08:33.422Z,56.00
2017-07-30T07:11:00.997Z,53.00
2017-07-30T07:13:28.562Z,53.90
2017-07-30T07:15:56.164Z,56.20
2017-07-30T07:18:23.733Z,57.80
2017-07-30T07:20:51.312Z,54.80
2017-07-30T07:23:18.883Z,56.00
2017-07-30T07:25:46.448Z,55.90
2017-07-30T07:28:13.969Z,56.30
2017-07-30T07:30:41.586Z,56.10
2017-07-30T07:33:09.141Z,56.80
2017-07-30T07:35:36.887Z,57.60
2017-07-30T07:38:04.455Z,59.00
2017-07-30T07:40:32.001Z,60.80
2017-07-30T07:42:59.557Z,60.70
2017-07-30T07:45:27.110Z,60.30
2017-07-30T07:47:54.770Z,60.60
2017-07-30T07:50:22.321Z,58.80
2017-07-30T07:52:49.886Z,61.50
2017-07-30T07:55:17.466Z,63.90
2017-07-30T07:57:45.042Z,65.00
2017-07-30T08:00:12.639Z,65.80
2017-07-30T08:02:40.193Z,64.00
2017-07-30T08:05:07.811Z,65.60
2017-07-30T08:07:35.357Z,64.40
2017-07-30T08:10:02.903Z,61.10
2017-07-30T08:12:31.237Z,59.70
2017-07-30T08:14:58.795Z,59.70
2017-07-30T08:17:26.444Z,58.10
2017-07-30T08:19:54.009Z,59.80
2017-07-30T08:22:21.615Z,60.80
2017-07-30T08:24:49.182Z,63.40
2017-07-30T08:27:16.791Z,67.20
2017-07-30T08:29:44.508Z,66.70
2017-07-30T08:32:12.061Z,66.80
2017-07-30T08:34:39.622Z,68.90
2017-07-30T08:37:07.219Z,69.10
2017-07-30T08:39:35.562Z,65.50
2017-07-30T08:42:03.114Z,65.70
2017-07-30T08:44:30.690Z,63.70
2017-07-30T08:46:58.248Z,60.50
2017-07-30T08:49:25.837Z,64.90
2017-07-30T08:51:54.199Z,69.30
2017-07-30T08:54:21.819Z,69.10
2017-07-30T08:56:49.416Z,68.20
2017-07-30T08:59:16.969Z,67.20
2017-07-30T09:01:44.535Z,62.70
2017-07-30T09:04:12.090Z,63.80
2017-07-30T09:06:39.686Z,60.20
2017-07-30T09:09:07.243Z,61.10
2017-07-30T09:11:34.798Z,60.90
2017-07-30T09:14:02.378Z,63.00
2017-07-30T09:16:29.917Z,62.90
2017-07-30T09:18:57.493Z,59.40
2017-07-30T09:21:25.051Z,58.60
2017-07-30T09:23:52.606Z,57.20
2017-07-30T09:26:20.187Z,59.90
2017-07-30T09:28:47.947Z,60.80
2017-07-30T09:31:15.513Z,57.50
2017-07-30T09:33:43.090Z,53.50
2017-07-30T09:36:11.635Z,55.50
2017-07-30T09:38:39.216Z,55.60
2017-07-30T09:41:06.776Z,54.10
2017-07-30T09:43:35.130Z,57.30
2017-07-30T09:46:02.678Z,57.20
2017-07-30T09:48:30.238Z,57.30
2017-07-30T09:50:57.807Z,56.00
2017-07-30T09:53:25.384Z,55.70
2017-07-30T09:55:53.130Z,53.60
2017-07-30T09:58:20.706Z,54.80
2017-07-30T10:00:49.128Z,55.20
2017-07-30T10:03:16.761Z,55.10
2017-07-30T10:05:45.074Z,53.60
2017-07-30T10:08:12.671Z,53.50
2017-07-30T10:10:40.227Z,55.20
2017-07-30T10:13:07.856Z,56.50
2017-07-30T10:15:35.437Z,55.30
2017-07-30T10:18:02.989Z,54.20
2017-07-30T10:20:30.658Z,53.80
2017-07-30T10:22:58.241Z,55.00
2017-07-30T10:25:25.838Z,55.50
2017-07-30T10:27:54.165Z,51.30
2017-07-30T10:30:21.721Z,51.30
2017-07-30T10:32:49.305Z,52.70
2017-07-30T10:35:16.877Z,51.30
2017-07-30T10:37:44.467Z,51.60
2017-07-30T10:40:12.813Z,55.30
2017-07-30T10:42:40.368Z,55.30
2017-07-30T10:45:07.938Z,54.00
2017-07-30T10:47:35.518Z,51.00
2017-07-30T10:50:03.097Z,50.30
2017-07-30T10:52:31.454Z,48.20
2017-07-30T10:54:59.039Z,48.20
2017-07-30T10:57:27.394Z,47.10
2017-07-30T10:59:54.958Z,47.10
2017-07-30T11:02:22.544Z,46.60
2017-07-30T11:04:50.881Z,45.10
2017-07-30T11:07:18.577Z,45.00
2017-07-30T11:09:46.140Z,45.80
2017-07-30T11:12:13.705Z,44.40
2017-07-30T11:14:41.290Z,43.10
2017-07-30T11:17:09.654Z,43.30
2017-07-30T11:19:37.258Z,43.30
2017-07-30T11:22:04.873Z,46.40
2017-07-30T11:24:32.466Z,46.20
2017-07-30T11:27:00.038Z,48.50
2017-07-30T11:29:27.614Z,48.40
2017-07-30T11:31:55.166Z,49.90
2017-07-30T11:34:22.868Z,47.60
2017-07-30T11:36:51.215Z,50.30
2017-07-30T11:39:18.802Z,50.30
2017-07-30T11:41:46.371Z,52.00
2017-07-30T11:44:13.982Z,49.20
2017-07-30T11:46:41.602Z,49.40
2017-07-30T11:49:10.031Z,52.70
2017-07-30T11:51:38.570Z,52.80
2017-07-30T11:54:06.155Z,50.40
2017-07-30T11:56:43.619Z,49.80
2017-07-30T11:59:11.315Z,48.40
2017-07-30T12:01:39.681Z,48.10
2017-07-30T12:04:08.009Z,48.10
2017-07-30T12:06:35.629Z,48.10
2017-07-30T12:09:03.967Z,47.50
2017-07-30T12:11:31.838Z,47.40
2017-07-30T12:13:59.416Z,45.20
2017-07-30T12:16:26.978Z,44.50
2017-07-30T12:18:54.652Z,42.60
2017-07-30T12:21:22.220Z,43.30
2017-07-30T12:23:49.782Z,43.30
2017-07-30T12:26:18.130Z,44.80
2017-07-30T12:28:45.695Z,44.20
2017-07-30T12:31:13.271Z,43.40
2017-07-30T12:33:40.867Z,45.50
2017-07-30T12:36:08.481Z,46.30
2017-07-30T12:38:36.061Z,44.80
2017-07-30T12:41:03.642Z,44.60
2017-07-30T12:43:31.186Z,44.80
2017-07-30T12:48:33.366Z,43.90
2017-07-30T12:51:00.931Z,43.80
2017-07-30T12:53:28.585Z,46.00
2017-07-30T12:55:56.145Z,45.40
2017-07-30T12:58:23.693Z,42.10
2017-07-30T13:00:52.013Z,40.20
2017-07-30T13:03:19.579Z,40.00
2017-07-30T13:05:47.153Z,40.30
2017-07-30T13:08:14.736Z,42.30
2017-07-30T13:10:42.301Z,37.80
2017-07-30T13:13:09.878Z,38.60
2017-07-30T13:15:37.488Z,37.80
2017-07-30T13:18:05.030Z,41.30
2017-07-30T13:20:32.650Z,38.60
2017-07-30T13:23:00.226Z,38.90
2017-07-30T13:25:27.810Z,39.50
2017-07-30T13:27:56.125Z,39.60
2017-07-30T13:30:23.709Z,39.70
2017-07-30T13:32:51.320Z,40.00
2017-07-30T13:35:19.645Z,39.00
2017-07-30T13:37:47.246Z,39.10
2017-07-30T13:40:14.793Z,38.60
2017-07-30T13:42:42.386Z,41.20
2017-07-30T13:45:10.715Z,41.30
2017-07-30T13:47:38.297Z,41.10
2017-07-30T13:50:05.841Z,40.30
2017-07-30T13:52:33.409Z,39.10
2017-07-30T13:55:00.972Z,37.40
2017-07-30T13:57:28.554Z,38.70
2017-07-30T13:59:56.150Z,41.20
2017-07-30T14:02:23.722Z,39.90
2017-07-30T14:04:51.302Z,41.30
2017-07-30T14:07:18.935Z,40.30
2017-07-30T14:09:46.551Z,42.20
2017-07-30T14:12:14.184Z,40.90
2017-07-30T14:14:41.750Z,39.70
2017-07-30T14:17:09.324Z,38.40
2017-07-30T14:19:37.099Z,37.60
2017-07-30T14:22:04.667Z,38.60
2017-07-30T14:24:32.246Z,38.70
2017-07-30T14:26:59.819Z,39.40
2017-07-30T14:29:27.390Z,39.50
2017-07-30T14:31:55.119Z,38.90
2017-07-30T14:34:22.973Z,41.70
2017-07-30T14:36:50.522Z,41.80
2017-07-30T14:39:18.098Z,40.60
2017-07-30T14:41:45.682Z,40.70
2017-07-30T14:44:13.303Z,40.40
2017-07-30T14:46:40.893Z,40.90
2017-07-30T14:49:08.461Z,41.50
2017-07-30T14:51:36.061Z,41.30
2017-07-30T14:54:03.635Z,40.70
2017-07-30T14:56:31.987Z,42.80
2017-07-30T14:58:59.667Z,42.80
2017-07-30T15:01:27.237Z,41.80
2017-07-30T15:03:55.582Z,41.80
2017-07-30T15:06:23.198Z,41.70
2017-07-30T15:08:51.546Z,42.70
2017-07-30T15:11:19.196Z,42.60
2017-07-30T15:13:46.770Z,46.30
2017-07-30T15:16:15.114Z,45.10
2017-07-30T15:18:42.706Z,45.10
2017-07-30T15:21:11.058Z,42.00
2017-07-30T15:23:38.724Z,42.10
2017-07-30T15:26:06.284Z,42.80
2017-07-30T15:28:33.870Z,43.20
2017-07-30T15:31:01.441Z,43.80
2017-07-30T15:33:29.798Z,46.70
2017-07-30T15:35:57.380Z,46.70
2017-07-30T15:38:25.694Z,45.30
2017-07-30T15:40:53.254Z,44.80
2017-07-30T15:43:20.822Z,43.70
2017-07-30T15:45:48.457Z,42.40
2017-07-30T15:48:16.817Z,42.60
2017-07-30T15:50:45.171Z,40.70
2017-07-30T15:53:12.762Z,40.70
2017-07-30T15:55:40.382Z,41.50
2017-07-30T15:58:07.981Z,39.80
2017-07-30T16:00:35.612Z,42.50
2017-07-30T16:03:03.196Z,42.90
2017-07-30T16:05:30.753Z,39.30
2017-07-30T16:07:58.322Z,41.40
2017-07-30T16:10:25.880Z,42.30
2017-07-30T16:12:53.518Z,42.30
2017-07-30T16:15:21.119Z,43.10
2017-07-30T16:17:48.734Z,43.70
2017-07-30T16:20:16.322Z,43.90
2017-07-30T16:22:43.917Z,44.70
2017-07-30T16:25:11.639Z,46.00
2017-07-30T16:27:39.207Z,45.60
2017-07-30T16:30:06.795Z,45.00
2017-07-30T16:32:34.379Z,46.60
2017-07-30T16:35:01.933Z,46.60
2017-07-30T16:37:29.504Z,46.10
2017-07-30T16:39:57.112Z,47.10
2017-07-30T16:42:24.676Z,49.10
2017-07-30T16:44:52.262Z,49.80
2017-07-30T16:47:20.865Z,49.90
2017-07-30T16:49:49.239Z,50.40
2017-07-30T16:52:17.567Z,50.20
2017-07-30T16:54:45.225Z,50.10
2017-07-30T16:57:12.818Z,50.70
2017-07-30T16:59:40.375Z,52.30
2017-07-30T17:02:07.940Z,50.80
2017-07-30T17:04:35.503Z,52.20
2017-07-30T17:07:03.084Z,52.70
2017-07-30T17:09:30.630Z,52.80
2017-07-30T17:11:58.221Z,52.60
2017-07-30T17:14:25.829Z,53.40
2017-07-30T17:16:53.427Z,53.10
2017-07-30T17:19:21.066Z,53.40
2017-07-30T17:21:48.633Z,54.70
2017-07-30T17:24:16.224Z,53.20
2017-07-30T17:26:43.802Z,54.10
2017-07-30T17:29:12.202Z,55.20
2017-07-30T17:31:40.611Z,55.30
2017-07-30T17:34:08.204Z,55.20
2017-07-30T17:36:35.801Z,56.00
2017-07-30T17:39:04.193Z,57.80
2017-07-30T17:41:32.598Z,58.30
2017-07-30T17:44:00.165Z,58.20
2017-07-30T17:46:27.818Z,58.70
2017-07-30T17:48:55.513Z,58.60
2017-07-30T17:51:23.199Z,58.40
2017-07-30T17:53:50.757Z,59.40
2017-07-30T17:56:18.340Z,58.70
2017-07-30T17:58:47.425Z,58.40
2017-07-30T18:01:15.191Z,59.00
2017-07-30T18:03:42.833Z,59.80
2017-07-30T18:06:10.421Z,59.70
2017-07-30T18:08:38.072Z,60.10
2017-07-30T18:11:18.185Z,61.00
2017-07-30T18:13:45.776Z,60.80
2017-07-30T18:16:13.366Z,62.40
2017-07-30T18:18:40.950Z,61.20
2017-07-30T18:21:09.426Z,61.90
2017-07-30T18:23:37.857Z,62.20
2017-07-30T18:26:05.483Z,62.20
2017-07-30T18:28:33.889Z,62.40
2017-07-30T18:31:01.728Z,62.40
2017-07-30T18:33:30.211Z,63.20
2017-07-30T18:35:57.778Z,63.10
2017-07-30T18:38:25.365Z,65.00
2017-07-30T18:40:52.931Z,65.20
2017-07-30T18:43:21.407Z,66.00
2017-07-30T18:45:48.990Z,66.00
2017-07-30T18:48:17.407Z,66.30
2017-07-30T18:50:44.978Z,67.00
2017-07-30T18:53:12.562Z,67.00
2017-07-30T18:55:40.169Z,68.50
2017-07-30T18:58:08.607Z,67.50
2017-07-30T19:00:37.710Z,68.30
2017-07-30T19:03:05.476Z,70.30
2017-07-30T19:05:33.236Z,70.20
2017-07-30T19:08:00.844Z,72.10
2017-07-30T19:10:28.445Z,71.60
2017-07-30T19:12:56.008Z,72.80
2017-07-30T19:15:23.635Z,74.10
2017-07-30T19:17:51.212Z,74.50
2017-07-30T19:20:18.814Z,75.00
2017-07-30T19:22:46.380Z,75.60
2017-07-30T19:25:14.055Z,77.60
2017-07-30T19:27:41.629Z,78.40
2017-07-30T19:30:09.367Z,80.10
2017-07-30T19:32:36.989Z,80.00
2017-07-30T19:35:04.618Z,81.50
2017-07-30T19:37:33.070Z,84.60
2017-07-30T19:40:00.681Z,84.60
2017-07-30T19:42:28.388Z,85.00
2017-07-30T19:44:56.108Z,85.60
2017-07-30T19:47:23.709Z,87.20
2017-07-30T19:49:51.335Z,86.60
2017-07-30T19:52:18.942Z,86.80
2017-07-30T19:54:46.537Z,86.70
2017-07-30T19:57:14.976Z,90.70
2017-07-30T19:59:42.616Z,90.70
2017-07-30T20:02:10.298Z,90.50
2017-07-30T20:04:44.211Z,90.20
2017-07-30T20:07:12.363Z,90.30
2017-07-30T20:09:39.954Z,91.20
2017-07-30T20:12:10.522Z,91.60
2017-07-30T20:14:38.244Z,92.30
2017-07-30T20:17:05.872Z,93.10
2017-07-30T20:19:33.574Z,93.30
2017-07-30T20:22:01.245Z,93.90
2017-07-30T20:24:28.907Z,93.90
2017-07-30T20:26:56.689Z,93.40
2017-07-30T20:29:24.331Z,93.20
2017-07-30T20:31:51.971Z,94.80
2017-07-30T20:34:19.646Z,94.70
2017-07-30T20:36:47.357Z,94.90
2017-07-30T20:39:15.764Z,94.90
2017-07-30T20:41:44.344Z,95.70
2017-07-30T20:44:12.163Z,95.70
2017-07-30T20:46:39.797Z,95.50
2017-07-30T20:49:07.521Z,95.50
2017-07-30T20:51:35.456Z,97.20
2017-07-30T20:54:03.065Z,97.20
2017-07-30T20:56:30.817Z,97.30
2017-07-30T20:58:58.514Z,98.30
2017-07-30T21:01:26.133Z,98.30
2017-07-30T21:03:53.756Z,99.30
2017-07-30T21:06:21.344Z,99.90
2017-07-30T21:08:49.008Z,99.90
2017-07-30T21:11:16.586Z,99.90
2017-07-30T21:13:44.242Z,99.90
2017-07-30T21:16:11.830Z,99.90
2017-07-30T21:18:39.467Z,99.90
2017-07-30T21:21:07.094Z,99.90
2017-07-30T21:23:34.752Z,99.90
2017-07-30T21:28:37.191Z,99.90
2017-07-30T21:31:31.370Z,99.90
2017-07-30T21:33:58.986Z,99.90
2017-07-30T21:36:26.562Z,99.90
2017-07-30T21:38:54.175Z,99.90
2017-07-30T21:41:21.779Z,99.90
2017-07-30T21:43:50.151Z,99.90
2017-07-30T21:46:18.521Z,99.90
2017-07-30T21:48:46.154Z,99.90
2017-07-30T21:51:13.776Z,99.90
2017-07-30T21:53:41.375Z,99.90
2017-07-30T21:56:09.018Z,99.90
2017-07-30T21:58:36.626Z,99.90
2017-07-30T22:01:04.239Z,99.90
2017-07-30T22:03:31.830Z,99.90
2017-07-30T22:05:59.449Z,99.90
2017-07-30T22:08:27.821Z,99.90
2017-07-30T22:10:55.446Z,99.90
2017-07-30T22:13:23.005Z,99.90
2017-07-30T22:15:50.746Z,99.90
2017-07-30T22:18:18.310Z,99.90
2017-07-30T22:20:45.971Z,99.90
2017-07-30T22:23:13.605Z,99.90
2017-07-30T22:25:41.982Z,99.90
2017-07-30T22:28:10.358Z,99.90
2017-07-30T22:30:37.943Z,99.90
2017-07-30T22:33:05.693Z,99.90
2017-07-30T22:35:34.021Z,99.90
2017-07-30T22:38:01.610Z,99.90
2017-07-30T22:40:29.232Z,99.90
2017-07-30T22:42:56.801Z,99.90
2017-07-30T22:45:24.765Z,99.90
2017-07-30T22:47:52.387Z,99.90
2017-07-30T22:50:20.724Z,99.90
2017-07-30T22:52:48.313Z,99.90
2017-07-30T22:55:15.894Z,99.90
2017-07-30T22:57:43.496Z,99.90
2017-07-30T23:00:11.079Z,99.90
2017-07-30T23:02:38.647Z,99.90
2017-07-30T23:05:06.235Z,99.90
2017-07-30T23:07:34.565Z,99.90
2017-07-30T23:10:02.186Z,99.90
2017-07-30T23:12:29.766Z,99.90
2017-07-30T23:14:57.319Z,99.90
2017-07-30T23:17:24.927Z,99.90
2017-07-30T23:19:52.538Z,99.90
2017-07-30T23:22:20.106Z,99.90
2017-07-30T23:24:47.695Z,99.90
2017-07-30T23:27:15.252Z,99.90
2017-07-30T23:29:42.843Z,99.90
2017-07-30T23:32:10.413Z,99.90
2017-07-30T23:34:37.991Z,99.90
2017-07-30T23:37:06.338Z,99.90
2017-07-30T23:39:33.912Z,99.90
2017-07-30T23:42:01.480Z,99.90
2017-07-30T23:44:29.030Z,99.90
2017-07-30T23:46:56.645Z,99.90
2017-07-30T23:49:24.213Z,99.90
2017-07-30T23:51:51.786Z,99.90
2017-07-30T23:54:19.351Z,99.90
2017-07-30T23:56:46.956Z,99.90
2017-07-30T23:59:14.616Z,99.90
